createdAt,value
2022-11-06T00:04:36.152Z,83.89
2022-11-06T00:09:44.025Z,84.15
2022-11-06T00:14:50.010Z,84.66
2022-11-06T00:19:56.197Z,84.58
2022-11-06T00:25:07.572Z,84.94
2022-11-06T00:30:14.486Z,85.39
2022-11-06T00:35:21.060Z,84.79
2022-11-06T00:40:28.895Z,84.29
2022-11-06T00:45:35.218Z,84.92
2022-11-06T00:50:41.471Z,84.69
2022-11-06T00:55:49.310Z,84.18
2022-11-06T01:00:55.786Z,84.22
2022-11-06T01:06:09.331Z,84.96
2022-11-06T01:11:20.105Z,84.79
2022-11-06T01:16:27.787Z,84.50
2022-11-06T01:21:37.379Z,84.40
2022-11-06T01:27:12.039Z,84.38
2022-11-06T01:32:12.818Z,84.67
2022-11-06T01:37:19.025Z,84.11
2022-11-06T01:42:26.639Z,84.54
2022-11-06T01:47:32.821Z,84.69
2022-11-06T01:52:40.187Z,83.88
2022-11-06T01:57:49.021Z,83.30
2022-11-06T02:02:55.458Z,83.39
2022-11-06T02:08:03.068Z,82.80
2022-11-06T02:13:26.315Z,82.94
2022-11-06T02:19:11.807Z,82.65
2022-11-06T02:25:10.380Z,82.08
2022-11-06T02:30:20.056Z,82.79
2022-11-06T02:35:31.694Z,82.01
2022-11-06T02:40:44.558Z,83.15
2022-11-06T02:45:58.628Z,82.41
2022-11-06T02:51:06.952Z,82.34
2022-11-06T02:56:16.796Z,82.16
2022-11-06T03:01:31.189Z,81.88
2022-11-06T03:06:43.546Z,82.19
2022-11-06T03:11:59.220Z,82.53
2022-11-06T03:17:13.994Z,81.73
2022-11-06T03:22:29.889Z,81.84
2022-11-06T03:27:42.248Z,82.11
2022-11-06T03:32:55.527Z,81.33
2022-11-06T03:38:07.112Z,79.01
2022-11-06T03:43:18.982Z,79.22
2022-11-06T03:48:33.801Z,79.92
2022-11-06T03:53:48.183Z,80.66
2022-11-06T03:58:55.495Z,79.82
2022-11-06T04:04:08.628Z,80.20
2022-11-06T04:09:35.334Z,81.08
2022-11-06T04:14:47.150Z,80.22
2022-11-06T04:19:58.778Z,79.96
2022-11-06T04:25:34.670Z,80.03
2022-11-06T04:30:55.455Z,79.72
2022-11-06T04:36:12.728Z,80.30
2022-11-06T04:41:34.919Z,79.26
2022-11-06T04:46:48.525Z,79.11
2022-11-06T04:51:57.253Z,78.95
2022-11-06T04:57:05.312Z,79.46
2022-11-06T05:02:13.188Z,80.04
2022-11-06T05:07:21.497Z,79.58
2022-11-06T05:12:28.112Z,79.45
2022-11-06T05:17:36.616Z,79.93
2022-11-06T05:23:05.332Z,80.85
2022-11-06T05:28:12.282Z,81.37
2022-11-06T05:33:18.588Z,82.36
2022-11-06T05:38:26.245Z,82.22
2022-11-06T05:43:32.421Z,82.85
2022-11-06T05:48:38.600Z,83.50
2022-11-06T05:53:46.298Z,83.36
2022-11-06T05:58:52.485Z,83.78
2022-11-06T06:03:59.046Z,83.83
2022-11-06T06:09:07.120Z,83.18
2022-11-06T06:14:13.457Z,83.18
2022-11-06T06:19:19.854Z,83.18
2022-11-06T06:24:27.766Z,83.16
2022-11-06T06:29:34.650Z,82.46
2022-11-06T06:34:40.914Z,82.98
2022-11-06T06:39:49.151Z,83.01
2022-11-06T06:44:55.597Z,82.64
2022-11-06T06:50:02.418Z,82.78
2022-11-06T06:55:11.708Z,82.94
2022-11-06T07:00:18.718Z,82.90
2022-11-06T07:05:25.129Z,83.41
2022-11-06T07:10:34.815Z,83.47
2022-11-06T07:15:40.513Z,83.72
2022-11-06T07:20:46.466Z,83.28
2022-11-06T07:25:56.534Z,84.36
2022-11-06T07:31:04.342Z,84.24
2022-11-06T07:36:13.751Z,83.93
2022-11-06T07:41:21.315Z,84.24
2022-11-06T07:46:27.514Z,85.25
2022-11-06T07:51:33.702Z,85.17
2022-11-06T07:56:41.432Z,85.09
2022-11-06T08:01:47.913Z,84.60
2022-11-06T08:06:54.370Z,84.92
2022-11-06T08:12:02.234Z,85.50
2022-11-06T08:17:08.485Z,86.57
2022-11-06T08:22:14.604Z,86.96
2022-11-06T08:27:22.370Z,86.53
2022-11-06T08:32:29.844Z,87.04
2022-11-06T08:37:36.077Z,87.60
2022-11-06T08:42:43.786Z,88.59
2022-11-06T08:47:50.124Z,87.77
2022-11-06T08:52:58.919Z,86.57
2022-11-06T08:58:07.515Z,86.85
2022-11-06T09:03:16.880Z,87.72
2022-11-06T09:08:24.553Z,87.14
2022-11-06T09:13:32.296Z,86.85
2022-11-06T09:18:38.742Z,87.49
2022-11-06T09:23:46.472Z,87.77
2022-11-06T09:28:54.516Z,87.85
2022-11-06T09:34:01.143Z,87.77
2022-11-06T09:39:07.573Z,87.20
2022-11-06T09:44:38.974Z,87.07
2022-11-06T09:49:51.735Z,86.62
2022-11-06T09:55:03.222Z,87.08
2022-11-06T10:00:16.438Z,86.98
2022-11-06T10:05:29.075Z,86.42
2022-11-06T10:10:44.499Z,86.27
2022-11-06T10:16:04.494Z,87.02
2022-11-06T10:21:18.288Z,87.71
2022-11-06T10:26:36.679Z,88.21
2022-11-06T10:31:58.033Z,87.77
2022-11-06T10:37:10.392Z,87.35
2022-11-06T10:42:21.745Z,87.54
2022-11-06T10:47:35.430Z,87.41
2022-11-06T10:52:57.257Z,87.63
2022-11-06T10:58:07.495Z,87.37
2022-11-06T11:03:29.891Z,86.58
2022-11-06T11:08:41.901Z,86.99
2022-11-06T11:13:52.157Z,87.64
2022-11-06T11:19:25.211Z,88.00
2022-11-06T11:24:32.073Z,86.75
2022-11-06T11:29:48.483Z,86.36
2022-11-06T11:34:58.875Z,86.58
2022-11-06T11:40:37.150Z,86.18
2022-11-06T11:45:43.840Z,86.10
2022-11-06T11:50:52.007Z,86.12
2022-11-06T11:55:58.826Z,86.63
2022-11-06T12:01:09.654Z,87.15
2022-11-06T12:06:21.188Z,87.01
2022-11-06T12:11:32.232Z,87.23
2022-11-06T12:16:39.813Z,87.18
2022-11-06T12:21:52.709Z,87.74
2022-11-06T12:27:07.318Z,87.53
2022-11-06T12:32:28.699Z,88.03
2022-11-06T12:37:51.409Z,87.74
2022-11-06T12:43:11.541Z,88.00
2022-11-06T12:48:46.138Z,88.11
2022-11-06T12:54:13.480Z,88.15
2022-11-06T12:59:39.194Z,88.25
2022-11-06T13:04:56.577Z,88.05
2022-11-06T13:10:28.349Z,88.09
2022-11-06T13:15:43.476Z,88.27
2022-11-06T13:20:58.406Z,88.27
2022-11-06T13:26:19.312Z,88.45
2022-11-06T13:31:36.948Z,88.53
2022-11-06T13:36:43.956Z,88.47
2022-11-06T13:41:54.096Z,88.05
2022-11-06T13:47:10.822Z,87.82
2022-11-06T13:52:26.293Z,87.72
2022-11-06T13:58:19.414Z,87.62
2022-11-06T14:04:03.242Z,88.15
2022-11-06T14:09:21.037Z,87.69
2022-11-06T14:14:33.229Z,88.02
2022-11-06T14:19:42.398Z,87.71
2022-11-06T14:24:53.822Z,87.82
2022-11-06T14:30:08.956Z,87.57
2022-11-06T14:35:52.181Z,87.56
2022-11-06T14:41:00.539Z,87.26
2022-11-06T14:46:22.605Z,86.85
2022-11-06T14:51:31.431Z,86.83
2022-11-06T14:56:39.924Z,86.89
2022-11-06T15:02:00.128Z,86.82
2022-11-06T15:07:50.923Z,86.40
2022-11-06T15:13:13.192Z,85.77
2022-11-06T15:18:24.864Z,85.03
2022-11-06T15:23:41.243Z,84.19
2022-11-06T15:28:52.680Z,84.32
2022-11-06T15:34:05.073Z,84.38
2022-11-06T15:39:35.131Z,83.45
2022-11-06T15:44:43.607Z,83.20
2022-11-06T15:50:07.273Z,82.66
2022-11-06T15:55:23.665Z,83.17
2022-11-06T16:00:30.869Z,82.54
2022-11-06T16:05:39.813Z,82.52
2022-11-06T16:10:50.110Z,82.59
2022-11-06T16:15:59.568Z,82.00
2022-11-06T16:21:16.925Z,82.89
2022-11-06T16:26:28.429Z,82.35
2022-11-06T16:31:39.604Z,82.24
2022-11-06T16:37:01.083Z,81.98
2022-11-06T16:42:31.386Z,81.88
2022-11-06T16:47:38.386Z,81.77
2022-11-06T16:52:54.526Z,82.40
2022-11-06T16:58:03.921Z,82.04
2022-11-06T17:03:23.238Z,80.84
2022-11-06T17:08:39.998Z,80.73
2022-11-06T17:13:49.273Z,79.11
2022-11-06T17:18:56.613Z,80.43
2022-11-06T17:24:31.161Z,79.79
2022-11-06T17:29:34.320Z,80.21
2022-11-06T17:34:41.768Z,81.26
2022-11-06T17:39:50.930Z,81.07
2022-11-06T17:44:57.883Z,80.83
2022-11-06T17:50:05.623Z,80.88
2022-11-06T17:55:16.549Z,80.77
2022-11-06T18:00:24.486Z,80.79
2022-11-06T18:05:31.838Z,80.74
2022-11-06T18:10:41.893Z,80.93
2022-11-06T18:15:49.590Z,81.25
2022-11-06T18:20:59.957Z,81.90
2022-11-06T18:26:09.595Z,81.81
2022-11-06T18:31:17.528Z,82.13
2022-11-06T18:36:25.087Z,81.87
2022-11-06T18:41:36.483Z,82.02
2022-11-06T18:46:44.974Z,81.68
2022-11-06T18:51:52.428Z,80.56
2022-11-06T18:57:00.995Z,81.44
2022-11-06T19:02:08.537Z,81.49
2022-11-06T19:07:16.759Z,81.58
2022-11-06T19:12:27.571Z,81.01
2022-11-06T19:17:36.214Z,81.29
2022-11-06T19:22:50.076Z,81.66
2022-11-06T19:27:59.756Z,80.88
2022-11-06T19:33:08.519Z,81.63
2022-11-06T19:38:16.155Z,81.44
2022-11-06T19:43:25.601Z,81.35
2022-11-06T19:48:34.573Z,80.46
2022-11-06T19:53:42.642Z,79.88
2022-11-06T19:58:53.924Z,80.88
2022-11-06T20:04:03.655Z,81.41
2022-11-06T20:09:11.926Z,81.25
2022-11-06T20:14:22.684Z,79.49
2022-11-06T20:19:32.986Z,80.12
2022-11-06T20:24:41.808Z,80.31
2022-11-06T20:29:50.874Z,80.47
2022-11-06T20:34:57.863Z,80.66
2022-11-06T20:40:05.858Z,80.57
2022-11-06T20:45:14.633Z,82.07
2022-11-06T20:50:22.341Z,80.96
2022-11-06T20:55:29.510Z,81.48
2022-11-06T21:00:41.893Z,81.21
2022-11-06T21:05:49.621Z,80.18
2022-11-06T21:11:03.300Z,80.99
2022-11-06T21:16:18.242Z,80.17
2022-11-06T21:21:28.442Z,81.14
2022-11-06T21:26:37.706Z,79.42
2022-11-06T21:31:49.200Z,80.43
2022-11-06T21:37:01.218Z,78.45
2022-11-06T21:42:08.957Z,78.82
2022-11-06T21:47:16.847Z,78.81
2022-11-06T21:52:41.538Z,78.46
2022-11-06T21:57:47.723Z,79.31
2022-11-06T22:02:55.493Z,79.57
2022-11-06T22:08:02.522Z,79.06
2022-11-06T22:13:08.749Z,78.76
2022-11-06T22:18:16.715Z,79.37
2022-11-06T22:23:23.016Z,79.14
2022-11-06T22:28:29.406Z,79.31
2022-11-06T22:33:37.464Z,79.30
2022-11-06T22:38:45.671Z,78.92
2022-11-06T22:43:52.508Z,80.51
2022-11-06T22:49:00.852Z,80.96
2022-11-06T22:54:07.461Z,81.57
2022-11-06T22:59:14.647Z,80.09
2022-11-06T23:04:22.232Z,80.54
2022-11-06T23:09:28.874Z,80.79
2022-11-06T23:14:35.257Z,80.92
2022-11-06T23:19:43.124Z,80.89
2022-11-06T23:24:49.440Z,81.75
2022-11-06T23:30:00.724Z,83.26
2022-11-06T23:35:16.942Z,83.02
2022-11-06T23:40:23.827Z,83.65
2022-11-06T23:45:47.523Z,82.74
2022-11-06T23:50:55.134Z,82.72
2022-11-06T23:56:06.064Z,82.46
